Freeborn, Missouri
Current Conditions -  °F | °C
As of 12:53 PM on Friday 24 Oct 2014 (Local Time) from KPOF Reporting Station
Broken Clouds Broken Clouds  
Wind Chill: 67°   Ceiling: 2500
Heat Index: 67°   Visibility: 8mi
Dew Point: 53°   Wind: 6mph
Humidity: 61%   Direction: 230°SW
Pressure: 30.11"   Gusts: NA
Location:  36.4408°N, 89.9914°W
Report Text: KPOF 241753Z AUTO 23005KT 8SM BKN025 19/12 A3011 RMK AO2 SLP197 T01940117 10200 20094 58010
Loading
Personal Weather Stations






























Interactive Weather Map
Tropical Storm Tracking
New forecast layout! Learn more

10-Day Weather Forecast

Advertisements
Track Severe Weather on mobile